Terminal Aerodrome Forecast
Issued by NWS

Home | Current Version | Previous Version | Graphics & Text | Print | Product List | Glossary On
Versions: 1 2 3 4 5 6 7 8 9 10 11 12 13 14 15 16 17 18 19
791
FTUS41 KCLE 240524
TAFFDY
TAF
KFDY 240524Z 2406/2506 12010KT P6SM VCSH OVC050
     FM241400 10010KT P6SM VCSH OVC030
     FM241700 10010KT P6SM VCSH SCT007 OVC015
     FM242100 07008KT 6SM BR VCSH OVC007
     FM250300 03006KT 3SM BR OVC003=

USA.gov is the U.S. government's official web portal to all federal, state and local government web resources and services.